createdAt,value
2019-01-18T00:01:47.221Z,99877.79
2019-01-18T00:04:15.564Z,99881.22
2019-01-18T00:06:43.882Z,99885.58
2019-01-18T00:09:12.422Z,99884.13
2019-01-18T00:11:40.746Z,99890.67
2019-01-18T00:14:09.081Z,99896.94
2019-01-18T00:16:37.376Z,99895.72
2019-01-18T00:19:05.779Z,99899.95
2019-01-18T00:21:34.091Z,99906.45
2019-01-18T00:24:02.503Z,99902.51
2019-01-18T00:26:30.805Z,99903.16
2019-01-18T00:28:59.144Z,99903.91
2019-01-18T00:31:27.504Z,99904.72
2019-01-18T00:33:55.876Z,99899.58
2019-01-18T00:36:24.224Z,99908.55
2019-01-18T00:38:52.621Z,99910.75
2019-01-18T00:41:20.936Z,99908.21
2019-01-18T00:43:49.288Z,99913.01
2019-01-18T00:46:17.588Z,99908.48
2019-01-18T00:48:47.345Z,99913.26
2019-01-18T00:51:15.733Z,99915.92
2019-01-18T00:53:44.054Z,99919.45
2019-01-18T00:56:12.697Z,99910.87
2019-01-18T00:58:41.863Z,99924.78
2019-01-18T01:01:11.343Z,99936.32
2019-01-18T01:03:39.750Z,99929.59
2019-01-18T01:06:08.204Z,99942.28
2019-01-18T01:08:36.584Z,99945.97
2019-01-18T01:11:05.040Z,99957.42
2019-01-18T01:13:33.533Z,99948.14
2019-01-18T01:16:01.929Z,99959.93
2019-01-18T01:18:30.246Z,99964.95
2019-01-18T01:20:58.637Z,99968.09
2019-01-18T01:23:26.967Z,99967.84
2019-01-18T01:25:55.360Z,99975.22
2019-01-18T01:28:23.745Z,99977.55
2019-01-18T01:30:52.151Z,99975.84
2019-01-18T01:33:20.495Z,99988.05
2019-01-18T01:35:48.941Z,100000.40
2019-01-18T01:38:17.335Z,99996.19
2019-01-18T01:40:45.745Z,99992.20
2019-01-18T01:43:14.393Z,99998.27
2019-01-18T01:45:43.329Z,100002.66
2019-01-18T01:48:12.086Z,100012.44
2019-01-18T01:50:40.484Z,100006.73
2019-01-18T01:53:08.943Z,100013.92
2019-01-18T01:55:37.349Z,100009.68
2019-01-18T01:58:05.774Z,100019.55
2019-01-18T02:00:34.181Z,100027.41
2019-01-18T02:03:03.443Z,100018.56
2019-01-18T02:05:31.782Z,100018.83
2019-01-18T02:08:00.121Z,100025.30
2019-01-18T02:10:28.486Z,100028.27
2019-01-18T02:12:58.789Z,100035.97
2019-01-18T02:15:27.250Z,100043.86
2019-01-18T02:17:55.722Z,100049.91
2019-01-18T02:20:24.548Z,100050.77
2019-01-18T02:22:53.125Z,100057.86
2019-01-18T02:25:21.774Z,100051.84
2019-01-18T02:27:50.377Z,100065.41
2019-01-18T02:30:21.012Z,100065.53
2019-01-18T02:32:49.499Z,100061.53
2019-01-18T02:35:17.935Z,100065.69
2019-01-18T02:37:46.432Z,100055.53
2019-01-18T02:40:15.922Z,100060.05
2019-01-18T02:42:44.727Z,100064.73
2019-01-18T02:45:16.185Z,100066.52
2019-01-18T02:47:44.582Z,100069.14
2019-01-18T02:50:13.729Z,100069.76
2019-01-18T02:52:42.102Z,100071.84
2019-01-18T02:55:12.258Z,100069.60
2019-01-18T02:57:40.605Z,100072.66
2019-01-18T03:00:14.557Z,100082.95
2019-01-18T03:02:42.978Z,100077.16
2019-01-18T03:05:14.573Z,100076.05
2019-01-18T03:07:43.029Z,100076.94
2019-01-18T03:10:17.495Z,100075.42
2019-01-18T03:12:45.815Z,100082.94
2019-01-18T03:15:14.855Z,100096.15
2019-01-18T03:17:43.237Z,100096.67
2019-01-18T03:20:14.397Z,100101.23
2019-01-18T03:22:42.706Z,100101.14
2019-01-18T03:25:15.448Z,100106.72
2019-01-18T03:27:43.773Z,100117.33
2019-01-18T03:30:19.027Z,100134.38
2019-01-18T03:32:45.659Z,100131.54
2019-01-18T03:35:15.793Z,100139.98
2019-01-18T03:37:44.128Z,100144.06
2019-01-18T03:40:15.772Z,100152.11
2019-01-18T03:42:44.214Z,100157.69
2019-01-18T03:45:15.553Z,100151.52
2019-01-18T03:47:43.948Z,100165.20
2019-01-18T03:50:17.669Z,100161.16
2019-01-18T03:52:46.213Z,100164.16
2019-01-18T03:55:15.074Z,100167.00
2019-01-18T03:57:43.525Z,100168.20
2019-01-18T04:00:15.992Z,100166.17
2019-01-18T04:02:44.316Z,100173.94
2019-01-18T04:05:13.918Z,100173.89
2019-01-18T04:07:42.322Z,100170.44
2019-01-18T04:10:13.212Z,100177.80
2019-01-18T04:12:47.556Z,100176.05
2019-01-18T04:15:17.930Z,100181.70
2019-01-18T04:17:46.254Z,100189.39
2019-01-18T04:20:16.403Z,100189.13
2019-01-18T04:22:44.853Z,100192.34
2019-01-18T04:25:16.678Z,100203.47
2019-01-18T04:27:45.241Z,100206.61
2019-01-18T04:30:16.717Z,100203.69
2019-01-18T04:32:45.050Z,100205.11
2019-01-18T04:35:13.845Z,100203.22
2019-01-18T04:37:42.841Z,100206.51
2019-01-18T04:40:16.970Z,100205.55
2019-01-18T04:42:45.787Z,100214.58
2019-01-18T04:45:14.365Z,100222.72
2019-01-18T04:47:42.742Z,100226.06
2019-01-18T04:50:15.267Z,100224.61
2019-01-18T04:52:43.714Z,100236.61
2019-01-18T04:55:13.190Z,100242.45
2019-01-18T04:57:41.494Z,100245.88
2019-01-18T05:00:15.981Z,100250.14
2019-01-18T05:02:44.400Z,100250.39
2019-01-18T05:05:13.552Z,100252.84
2019-01-18T05:07:41.956Z,100259.31
2019-01-18T05:10:12.808Z,100263.72
2019-01-18T05:12:41.221Z,100264.21
2019-01-18T05:15:13.762Z,100268.09
2019-01-18T05:17:42.148Z,100273.52
2019-01-18T05:20:11.602Z,100269.64
2019-01-18T05:22:40.060Z,100272.62
2019-01-18T05:25:10.841Z,100274.58
2019-01-18T05:27:39.351Z,100273.11
2019-01-18T05:30:11.510Z,100283.69
2019-01-18T05:32:39.832Z,100287.38
2019-01-18T05:35:09.502Z,100296.41
2019-01-18T05:37:37.885Z,100304.28
2019-01-18T05:40:11.474Z,100308.48
2019-01-18T05:42:39.886Z,100318.44
2019-01-18T05:45:10.276Z,100326.91
2019-01-18T05:47:38.622Z,100327.92
2019-01-18T05:50:10.082Z,100326.64
2019-01-18T05:52:38.425Z,100333.26
2019-01-18T05:55:06.853Z,100335.33
2019-01-18T05:57:35.537Z,100339.45
2019-01-18T06:00:08.574Z,100342.24
2019-01-18T06:02:36.900Z,100355.14
2019-01-18T06:05:07.453Z,100353.88
2019-01-18T06:07:35.852Z,100352.41
2019-01-18T06:10:05.756Z,100363.00
2019-01-18T06:12:34.077Z,100359.86
2019-01-18T06:15:02.501Z,100365.73
2019-01-18T06:17:30.810Z,100366.63
2019-01-18T06:19:59.124Z,100368.16
2019-01-18T06:22:27.540Z,100371.30
2019-01-18T06:24:55.858Z,100372.99
2019-01-18T06:27:24.206Z,100374.38
2019-01-18T06:29:52.542Z,100375.84
2019-01-18T06:32:20.870Z,100382.17
2019-01-18T06:34:49.276Z,100388.23
2019-01-18T06:37:17.619Z,100386.47
2019-01-18T06:39:46.002Z,100388.20
2019-01-18T06:42:14.457Z,100403.25
2019-01-18T06:44:42.792Z,100399.87
2019-01-18T06:47:11.128Z,100406.98
2019-01-18T06:49:39.459Z,100401.55
2019-01-18T06:52:08.059Z,100413.15
2019-01-18T06:54:36.452Z,100411.89
2019-01-18T06:57:04.927Z,100419.80
2019-01-18T06:59:33.290Z,100422.03
2019-01-18T07:02:01.681Z,100421.78
2019-01-18T07:04:30.129Z,100431.17
2019-01-18T07:06:58.531Z,100430.05
2019-01-18T07:09:26.865Z,100437.48
2019-01-18T07:11:55.218Z,100438.38
2019-01-18T07:14:23.560Z,100433.53
2019-01-18T07:16:51.981Z,100441.22
2019-01-18T07:19:20.461Z,100438.90
2019-01-18T07:21:48.985Z,100439.33
2019-01-18T07:24:17.522Z,100441.28
2019-01-18T07:26:46.508Z,100456.04
2019-01-18T07:29:15.108Z,100455.83
2019-01-18T07:31:43.907Z,100444.76
2019-01-18T07:34:13.554Z,100469.42
2019-01-18T07:36:42.076Z,100470.05
2019-01-18T07:39:11.865Z,100472.23
2019-01-18T07:41:40.261Z,100475.89
2019-01-18T07:44:08.793Z,100472.53
2019-01-18T07:46:37.165Z,100469.19
2019-01-18T07:49:05.586Z,100472.34
2019-01-18T07:51:33.936Z,100467.95
2019-01-18T07:54:02.296Z,100469.44
2019-01-18T07:56:30.623Z,100473.52
2019-01-18T07:58:58.981Z,100468.92
2019-01-18T08:01:27.389Z,100472.70
2019-01-18T08:03:55.819Z,100478.25
2019-01-18T08:06:24.173Z,100481.02
2019-01-18T08:08:52.534Z,100489.09
2019-01-18T08:11:21.013Z,100492.64
2019-01-18T08:13:49.341Z,100495.88
2019-01-18T08:16:17.687Z,100501.48
2019-01-18T08:18:46.069Z,100513.02
2019-01-18T08:21:14.743Z,100514.34
2019-01-18T08:23:43.167Z,100516.13
2019-01-18T08:26:11.615Z,100529.09
2019-01-18T08:28:39.944Z,100526.55
2019-01-18T08:31:08.890Z,100534.58
2019-01-18T08:33:37.192Z,100537.67
2019-01-18T08:36:05.889Z,100539.73
2019-01-18T08:38:34.263Z,100547.11
2019-01-18T08:41:02.629Z,100552.80
2019-01-18T08:43:30.991Z,100554.96
2019-01-18T08:45:59.336Z,100561.07
2019-01-18T08:48:27.670Z,100559.19
2019-01-18T08:50:56.124Z,100562.67
2019-01-18T08:53:24.433Z,100568.87
2019-01-18T08:55:52.890Z,100574.09
2019-01-18T08:58:22.297Z,100576.75
2019-01-18T09:00:50.626Z,100579.08
2019-01-18T09:03:19.009Z,100580.41
2019-01-18T09:05:47.406Z,100586.61
2019-01-18T09:08:15.802Z,100584.86
2019-01-18T09:10:44.214Z,100582.94
2019-01-18T09:13:12.526Z,100582.49
2019-01-18T09:15:41.102Z,100591.14
2019-01-18T09:18:09.573Z,100586.53
2019-01-18T09:20:37.921Z,100593.58
2019-01-18T09:23:06.719Z,100598.02
2019-01-18T09:25:35.057Z,100605.97
2019-01-18T09:28:03.518Z,100607.88
2019-01-18T09:30:33.370Z,100609.34
2019-01-18T09:33:02.383Z,100604.56
2019-01-18T09:35:31.341Z,100616.06
2019-01-18T09:38:00.383Z,100625.34
2019-01-18T09:40:30.848Z,100629.11
2019-01-18T09:42:59.234Z,100628.23
2019-01-18T09:45:27.673Z,100627.26
2019-01-18T09:47:56.191Z,100632.30
2019-01-18T09:50:27.671Z,100624.41
2019-01-18T09:52:56.988Z,100631.67
2019-01-18T09:55:25.352Z,100636.52
2019-01-18T09:57:54.009Z,100635.56
2019-01-18T10:00:24.987Z,100639.68
2019-01-18T10:02:53.378Z,100638.09
2019-01-18T10:05:21.922Z,100644.41
2019-01-18T10:07:50.340Z,100644.47
2019-01-18T10:10:20.405Z,100645.86
2019-01-18T10:12:49.344Z,100638.64
2019-01-18T10:15:26.080Z,100647.48
2019-01-18T10:18:00.389Z,100644.66
2019-01-18T10:20:24.944Z,100641.99
2019-01-18T10:22:53.480Z,100638.84
2019-01-18T10:25:21.862Z,100639.02
2019-01-18T10:27:50.216Z,100643.14
2019-01-18T10:30:22.495Z,100641.53
2019-01-18T10:32:50.905Z,100642.97
2019-01-18T10:35:19.451Z,100642.45
2019-01-18T10:37:47.871Z,100640.73
2019-01-18T10:40:16.955Z,100641.61
2019-01-18T10:42:46.416Z,100641.99
2019-01-18T10:45:16.301Z,100636.12
2019-01-18T10:47:44.864Z,100650.39
2019-01-18T10:50:16.461Z,100649.31
2019-01-18T10:52:45.320Z,100644.52
2019-01-18T10:55:13.733Z,100645.99
2019-01-18T10:57:42.126Z,100638.83
2019-01-18T11:00:14.781Z,100639.53
2019-01-18T11:02:43.249Z,100640.20
2019-01-18T11:05:13.191Z,100647.06
2019-01-18T11:07:42.111Z,100651.08
2019-01-18T11:10:11.810Z,100653.22
2019-01-18T11:12:40.212Z,100657.87
2019-01-18T11:15:11.489Z,100651.86
2019-01-18T11:17:39.857Z,100653.57
2019-01-18T11:20:11.651Z,100652.95
2019-01-18T11:22:40.151Z,100655.77
2019-01-18T11:25:09.312Z,100654.39
2019-01-18T11:27:37.677Z,100657.47
2019-01-18T11:30:09.569Z,100654.59
2019-01-18T11:32:37.871Z,100656.21
2019-01-18T11:35:06.896Z,100655.89
2019-01-18T11:37:35.257Z,100661.75
2019-01-18T11:40:07.738Z,100655.82
2019-01-18T11:42:36.061Z,100662.28
2019-01-18T11:45:07.416Z,100657.39
2019-01-18T11:47:35.735Z,100650.00
2019-01-18T11:50:09.142Z,100647.20
2019-01-18T11:52:37.600Z,100652.29
2019-01-18T11:55:06.016Z,100648.64
2019-01-18T11:57:34.362Z,100642.24
2019-01-18T12:00:04.996Z,100641.89
2019-01-18T12:02:33.434Z,100646.85
2019-01-18T12:05:01.761Z,100642.73
2019-01-18T12:07:30.121Z,100637.65
2019-01-18T12:09:58.454Z,100630.59
2019-01-18T12:12:26.829Z,100627.79
2019-01-18T12:14:55.203Z,100630.94
2019-01-18T12:17:23.561Z,100626.55
2019-01-18T12:19:51.907Z,100634.63
2019-01-18T12:22:20.498Z,100631.77
2019-01-18T12:24:48.887Z,100624.52
2019-01-18T12:27:17.245Z,100623.44
2019-01-18T12:29:45.578Z,100620.69
2019-01-18T12:32:14.000Z,100615.95
2019-01-18T12:34:42.386Z,100620.30
2019-01-18T12:37:10.822Z,100621.80
2019-01-18T12:39:39.156Z,100614.62
2019-01-18T12:42:07.622Z,100621.27
2019-01-18T12:44:35.985Z,100616.56
2019-01-18T12:47:04.446Z,100612.41
2019-01-18T12:49:32.815Z,100610.22
2019-01-18T12:52:01.270Z,100605.97
2019-01-18T12:54:29.615Z,100596.27
2019-01-18T12:56:57.934Z,100600.23
2019-01-18T12:59:26.266Z,100601.10
2019-01-18T13:01:54.669Z,100603.83
2019-01-18T13:04:23.053Z,100601.72
2019-01-18T13:06:51.370Z,100598.64
2019-01-18T13:09:19.728Z,100597.47
2019-01-18T13:11:48.065Z,100591.92
2019-01-18T13:14:16.379Z,100583.92
2019-01-18T13:16:44.738Z,100575.80
2019-01-18T13:19:13.271Z,100588.73
2019-01-18T13:21:41.681Z,100579.78
2019-01-18T13:24:10.169Z,100587.86
2019-01-18T13:26:38.527Z,100600.84
2019-01-18T13:29:07.206Z,100589.28
2019-01-18T13:31:35.621Z,100591.70
2019-01-18T13:34:04.274Z,100588.84
2019-01-18T13:36:32.599Z,100593.70
2019-01-18T13:39:00.922Z,100591.45
2019-01-18T13:41:29.391Z,100597.85
2019-01-18T13:43:57.719Z,100604.55
2019-01-18T13:46:26.074Z,100601.34
2019-01-18T13:48:54.405Z,100601.20
2019-01-18T13:51:22.947Z,100607.39
2019-01-18T13:53:51.361Z,100600.13
2019-01-18T13:56:19.708Z,100596.29
2019-01-18T13:58:48.071Z,100608.12
2019-01-18T14:01:16.531Z,100611.45
2019-01-18T14:03:44.919Z,100600.78
2019-01-18T14:06:13.270Z,100598.67
2019-01-18T14:08:41.642Z,100599.56
2019-01-18T14:11:10.239Z,100607.47
2019-01-18T14:13:38.556Z,100603.30
2019-01-18T14:16:07.492Z,100605.72
2019-01-18T14:18:35.804Z,100607.20
2019-01-18T14:21:04.204Z,100616.14
2019-01-18T14:23:32.540Z,100616.19
2019-01-18T14:26:00.949Z,100613.07
2019-01-18T14:28:29.397Z,100616.19
2019-01-18T14:30:57.733Z,100615.64
2019-01-18T14:33:26.531Z,100617.45
2019-01-18T14:35:54.950Z,100610.48
2019-01-18T14:38:25.162Z,100615.91
2019-01-18T14:40:53.678Z,100611.43
2019-01-18T14:43:22.079Z,100616.81
2019-01-18T14:45:50.523Z,100621.06
2019-01-18T14:48:18.962Z,100616.84
2019-01-18T14:50:47.446Z,100622.88
2019-01-18T14:53:15.871Z,100620.02
2019-01-18T14:55:44.208Z,100621.14
2019-01-18T14:58:12.661Z,100626.92
2019-01-18T15:00:41.075Z,100625.98
2019-01-18T15:03:09.623Z,100629.12
2019-01-18T15:05:38.268Z,100630.16
2019-01-18T15:08:08.581Z,100623.96
2019-01-18T15:10:37.474Z,100635.92
2019-01-18T15:13:10.417Z,100631.20
2019-01-18T15:15:38.805Z,100634.44
2019-01-18T15:18:07.644Z,100640.38
2019-01-18T15:20:36.053Z,100641.47
2019-01-18T15:23:04.752Z,100642.89
2019-01-18T15:25:33.111Z,100644.76
2019-01-18T15:28:01.497Z,100644.75
2019-01-18T15:30:32.652Z,100640.63
2019-01-18T15:33:01.029Z,100641.22
2019-01-18T15:35:30.972Z,100642.79
2019-01-18T15:37:59.421Z,100640.33
2019-01-18T15:40:31.239Z,100643.52
2019-01-18T15:43:01.086Z,100643.73
2019-01-18T15:45:29.446Z,100642.48
2019-01-18T15:47:57.838Z,100646.72
2019-01-18T15:50:28.831Z,100637.96
2019-01-18T15:52:57.267Z,100640.96
2019-01-18T15:55:25.965Z,100645.15
2019-01-18T15:57:54.420Z,100644.56
2019-01-18T16:00:26.337Z,100644.42
2019-01-18T16:02:55.015Z,100639.84
2019-01-18T16:05:23.436Z,100642.28
2019-01-18T16:07:51.815Z,100648.02
2019-01-18T16:10:20.237Z,100649.48
2019-01-18T16:12:48.922Z,100640.80
2019-01-18T16:15:22.309Z,100644.94
2019-01-18T16:17:50.728Z,100640.27
2019-01-18T16:20:21.406Z,100642.17
2019-01-18T16:22:50.173Z,100643.31
2019-01-18T16:25:21.894Z,100645.92
2019-01-18T16:27:50.221Z,100641.59
2019-01-18T16:30:21.861Z,100643.41
2019-01-18T16:32:50.228Z,100646.05
2019-01-18T16:35:19.044Z,100641.50
2019-01-18T16:37:48.229Z,100639.17
2019-01-18T16:40:20.108Z,100640.50
2019-01-18T16:42:52.994Z,100642.70
2019-01-18T16:45:21.354Z,100645.60
2019-01-18T16:47:49.692Z,100649.34
2019-01-18T16:50:18.020Z,100644.67
2019-01-18T16:52:46.331Z,100641.32
2019-01-18T16:55:14.871Z,100637.61
2019-01-18T16:57:43.319Z,100641.41
2019-01-18T17:00:15.313Z,100636.03
2019-01-18T17:02:43.785Z,100642.61
2019-01-18T17:05:12.834Z,100638.64
2019-01-18T17:07:41.776Z,100642.61
2019-01-18T17:10:13.244Z,100642.38
2019-01-18T17:12:41.670Z,100639.25
2019-01-18T17:15:13.091Z,100640.84
2019-01-18T17:17:42.230Z,100638.19
2019-01-18T17:20:16.058Z,100635.58
2019-01-18T17:22:44.541Z,100634.97
2019-01-18T17:25:13.254Z,100638.09
2019-01-18T17:27:41.751Z,100637.88
2019-01-18T17:30:13.718Z,100643.13
2019-01-18T17:32:42.207Z,100641.32
2019-01-18T17:35:13.089Z,100635.06
2019-01-18T17:37:43.483Z,100636.34
2019-01-18T17:40:13.918Z,100641.41
2019-01-18T17:42:46.586Z,100637.48
2019-01-18T17:45:21.318Z,100633.42
2019-01-18T17:47:56.080Z,100640.97
2019-01-18T17:50:30.775Z,100643.38
2019-01-18T17:53:02.408Z,100640.73
2019-01-18T17:55:47.186Z,100643.25
2019-01-18T17:58:19.893Z,100640.73
2019-01-18T18:00:51.757Z,100640.52
2019-01-18T18:03:25.607Z,100641.16
2019-01-18T18:05:58.441Z,100645.99
2019-01-18T18:11:17.880Z,100644.41
2019-01-18T18:13:50.355Z,100642.41
2019-01-18T18:16:23.220Z,100637.70
2019-01-18T18:18:57.071Z,100640.87
2019-01-18T18:21:29.711Z,100643.03
2019-01-18T18:24:03.479Z,100642.90
2019-01-18T18:26:36.066Z,100639.16
2019-01-18T18:29:11.223Z,100638.09
2019-01-18T18:31:45.947Z,100640.38
2019-01-18T18:34:19.583Z,100637.41
2019-01-18T18:36:53.637Z,100636.11
2019-01-18T18:39:26.493Z,100637.66
2019-01-18T18:41:58.327Z,100639.83
2019-01-18T18:44:32.205Z,100632.86
2019-01-18T18:47:04.971Z,100635.03
2019-01-18T18:49:39.731Z,100634.64
2019-01-18T18:52:14.460Z,100636.92
2019-01-18T18:54:49.099Z,100638.77
2019-01-18T18:57:22.707Z,100638.51
2019-01-18T18:59:57.405Z,100631.91
2019-01-18T19:02:30.370Z,100630.97
2019-01-18T19:05:04.044Z,100631.09
2019-01-18T19:07:36.671Z,100636.50
2019-01-18T19:10:12.575Z,100635.30
2019-01-18T19:12:44.128Z,100632.53
2019-01-18T19:15:17.846Z,100628.92
2019-01-18T19:17:51.549Z,100634.08
2019-01-18T19:20:24.538Z,100631.44
2019-01-18T19:22:58.210Z,100629.77
2019-01-18T19:25:33.846Z,100633.84
2019-01-18T19:28:07.709Z,100631.19
2019-01-18T19:30:41.442Z,100625.81
2019-01-18T19:33:13.468Z,100632.28
2019-01-18T19:35:45.233Z,100625.89
2019-01-18T19:38:17.497Z,100622.31
2019-01-18T19:40:50.537Z,100619.69
2019-01-18T19:43:26.269Z,100619.43
2019-01-18T19:45:59.795Z,100618.81
2019-01-18T19:48:34.575Z,100621.95
2019-01-18T19:51:07.326Z,100624.95
2019-01-18T19:53:41.315Z,100619.32
2019-01-18T19:56:14.113Z,100622.90
2019-01-18T19:58:44.866Z,100623.16
2019-01-18T20:01:18.050Z,100623.51
2019-01-18T20:03:51.738Z,100621.23
2019-01-18T20:06:26.605Z,100622.55
2019-01-18T20:09:00.442Z,100619.79
2019-01-18T20:11:35.078Z,100620.89
2019-01-18T20:14:08.770Z,100625.06
2019-01-18T20:16:41.721Z,100634.77
2019-01-18T20:19:18.496Z,100630.90
2019-01-18T20:21:52.575Z,100631.73
2019-01-18T20:24:28.264Z,100629.12
2019-01-18T20:26:59.868Z,100624.91
2019-01-18T20:29:31.794Z,100627.88
2019-01-18T20:32:04.864Z,100630.48
2019-01-18T20:34:39.658Z,100626.31
2019-01-18T20:37:13.505Z,100624.04
2019-01-18T20:39:48.260Z,100627.13
2019-01-18T20:42:18.601Z,100621.48
2019-01-18T20:44:52.361Z,100623.05
2019-01-18T20:47:27.000Z,100623.28
2019-01-18T20:49:59.786Z,100617.38
2019-01-18T20:52:34.376Z,100618.81
2019-01-18T20:55:10.532Z,100624.33
2019-01-18T20:57:44.185Z,100614.62
2019-01-18T21:00:16.754Z,100617.85
2019-01-18T21:02:53.508Z,100618.33
2019-01-18T21:05:24.463Z,100619.38
2019-01-18T21:08:00.745Z,100620.70
2019-01-18T21:10:33.844Z,100619.25
2019-01-18T21:13:07.647Z,100615.53
2019-01-18T21:15:39.893Z,100619.09
2019-01-18T21:18:13.805Z,100622.20
2019-01-18T21:20:48.473Z,100617.66
2019-01-18T21:23:23.267Z,100616.09
2019-01-18T21:25:55.866Z,100615.97
2019-01-18T21:28:31.682Z,100615.45
2019-01-18T21:31:07.769Z,100614.25
2019-01-18T21:33:41.869Z,100618.69
2019-01-18T21:36:17.589Z,100610.30
2019-01-18T21:38:51.463Z,100612.75
2019-01-18T21:41:24.618Z,100607.91
2019-01-18T21:43:55.599Z,100608.54
2019-01-18T21:46:27.311Z,100607.06
2019-01-18T21:49:00.309Z,100606.58
2019-01-18T21:51:30.995Z,100608.09
2019-01-18T21:54:04.758Z,100597.67
2019-01-18T21:56:38.590Z,100605.47
2019-01-18T21:59:14.454Z,100606.29
2019-01-18T22:01:49.611Z,100605.57
2019-01-18T22:04:23.892Z,100607.78
2019-01-18T22:06:56.822Z,100609.16
2019-01-18T22:09:30.133Z,100607.86
2019-01-18T22:12:04.321Z,100606.73
2019-01-18T22:14:39.901Z,100612.04
2019-01-18T22:17:16.486Z,100610.65
2019-01-18T22:19:56.026Z,100608.20
2019-01-18T22:22:29.528Z,100616.89
2019-01-18T22:25:02.941Z,100611.21
2019-01-18T22:27:38.970Z,100610.84
2019-01-18T22:30:15.409Z,100608.98
2019-01-18T22:32:47.708Z,100613.17
2019-01-18T22:35:21.820Z,100611.31
2019-01-18T22:37:56.827Z,100608.46
2019-01-18T22:40:27.588Z,100612.41
2019-01-18T22:43:01.023Z,100616.22
2019-01-18T22:45:36.825Z,100625.22
2019-01-18T22:51:20.569Z,100614.37
2019-01-18T22:53:55.363Z,100625.98
2019-01-18T22:56:28.010Z,100617.15
2019-01-18T22:59:02.238Z,100617.15
2019-01-18T23:01:34.286Z,100617.54
2019-01-18T23:04:10.499Z,100611.04
2019-01-18T23:06:44.570Z,100607.39
2019-01-18T23:09:18.221Z,100615.11
2019-01-18T23:11:49.854Z,100610.31
2019-01-18T23:14:23.879Z,100609.16
2019-01-18T23:16:58.054Z,100614.38
2019-01-18T23:19:29.093Z,100606.66
2019-01-18T23:22:05.879Z,100604.84
2019-01-18T23:24:38.804Z,100606.17
2019-01-18T23:27:14.594Z,100604.62
2019-01-18T23:29:51.277Z,100601.28
2019-01-18T23:32:26.493Z,100600.48
2019-01-18T23:35:02.892Z,100595.47
2019-01-18T23:37:32.481Z,100602.41
2019-01-18T23:40:07.229Z,100603.48
2019-01-18T23:42:39.037Z,100598.46
2019-01-18T23:45:12.905Z,100602.47
2019-01-18T23:47:43.221Z,100605.52
2019-01-18T23:50:14.761Z,100596.95
2019-01-18T23:52:45.892Z,100594.64
2019-01-18T23:55:20.653Z,100599.59
2019-01-18T23:57:51.845Z,100598.81
